createdAt,value
2022-08-02T00:00:59.938Z,100390.00
2022-08-02T00:03:26.893Z,100417.00
2022-08-02T00:05:54.195Z,100413.00
2022-08-02T00:08:22.373Z,100417.00
2022-08-02T00:10:50.201Z,100411.00
2022-08-02T00:13:17.177Z,100422.00
2022-08-02T00:15:44.173Z,100413.00
2022-08-02T00:18:11.119Z,100417.00
2022-08-02T00:20:39.140Z,100413.00
2022-08-02T00:23:06.094Z,100416.00
2022-08-02T00:25:33.164Z,100421.00
2022-08-02T00:28:00.062Z,100423.00
2022-08-02T00:30:27.055Z,100403.00
2022-08-02T00:32:54.013Z,100414.00
2022-08-02T00:35:21.310Z,100419.00
2022-08-02T00:37:48.450Z,100417.00
2022-08-02T00:40:15.394Z,100401.00
2022-08-02T00:42:44.153Z,100415.00
2022-08-02T00:45:11.342Z,100407.00
2022-08-02T00:47:38.408Z,100416.00
2022-08-02T00:50:06.497Z,100420.00
2022-08-02T00:52:33.600Z,100420.00
2022-08-02T00:55:00.536Z,100422.00
2022-08-02T00:57:27.644Z,100425.00
2022-08-02T00:59:54.602Z,100430.00
2022-08-02T01:02:21.722Z,100423.00
2022-08-02T01:04:48.854Z,100421.00
2022-08-02T01:07:15.992Z,100432.00
2022-08-02T01:09:45.305Z,100426.00
2022-08-02T01:12:13.697Z,100422.00
2022-08-02T01:14:48.143Z,100417.00
2022-08-02T01:21:50.022Z,100413.00
2022-08-02T01:24:58.631Z,100412.00
2022-08-02T01:27:46.868Z,100421.00
2022-08-02T01:30:16.453Z,100399.00
2022-08-02T01:32:53.804Z,100424.00
2022-08-02T01:35:47.417Z,100404.00
2022-08-02T01:38:29.234Z,100422.00
2022-08-02T01:40:59.171Z,100421.00
2022-08-02T01:43:29.721Z,100406.00
2022-08-02T01:45:58.694Z,100419.00
2022-08-02T01:48:29.483Z,100417.00
2022-08-02T01:50:59.773Z,100404.00
2022-08-02T01:53:30.586Z,100420.00
2022-08-02T01:56:00.589Z,100411.00
2022-08-02T01:58:34.896Z,100417.00
2022-08-02T02:01:03.276Z,100422.00
2022-08-02T02:03:34.224Z,100415.00
2022-08-02T02:06:05.672Z,100427.00
2022-08-02T02:08:43.680Z,100406.00
2022-08-02T02:12:06.175Z,100426.00
2022-08-02T02:14:04.131Z,100431.00
2022-08-02T02:16:34.581Z,100424.00
2022-08-02T02:19:05.053Z,100426.00
2022-08-02T02:21:32.376Z,100427.00
2022-08-02T02:24:02.715Z,100424.00
2022-08-02T02:26:32.272Z,100439.00
2022-08-02T02:29:04.430Z,100434.00
2022-08-02T02:31:38.820Z,100443.00
2022-08-02T02:34:15.870Z,100436.00
2022-08-02T02:36:49.704Z,100434.00
2022-08-02T02:39:22.085Z,100441.00
2022-08-02T02:41:51.523Z,100438.00
2022-08-02T02:44:21.453Z,100427.00
2022-08-02T02:46:53.725Z,100443.00
2022-08-02T02:49:24.341Z,100441.00
2022-08-02T02:51:52.556Z,100443.00
2022-08-02T02:54:32.942Z,100438.00
2022-08-02T02:57:05.506Z,100445.00
2022-08-02T02:59:37.686Z,100440.00
2022-08-02T03:02:16.317Z,100436.00
2022-08-02T03:04:57.461Z,100445.00
2022-08-02T03:07:26.741Z,100443.00
2022-08-02T03:09:56.228Z,100441.00
2022-08-02T03:12:31.878Z,100442.00
2022-08-02T03:15:02.324Z,100445.00
2022-08-02T03:17:44.682Z,100431.00
2022-08-02T03:20:20.209Z,100444.00
2022-08-02T03:22:47.894Z,100443.00
2022-08-02T03:25:16.642Z,100452.00
2022-08-02T03:27:43.937Z,100450.00
2022-08-02T03:30:13.559Z,100444.00
2022-08-02T03:32:48.476Z,100448.00
2022-08-02T03:35:24.202Z,100448.00
2022-08-02T03:37:55.654Z,100451.00
2022-08-02T03:40:23.772Z,100462.00
2022-08-02T03:42:51.532Z,100463.00
2022-08-02T03:45:19.891Z,100463.00
2022-08-02T03:47:47.226Z,100457.00
2022-08-02T03:50:14.710Z,100465.00
2022-08-02T03:52:44.939Z,100470.00
2022-08-02T03:55:13.935Z,100468.00
2022-08-02T03:57:42.998Z,100473.00
2022-08-02T04:00:17.982Z,100475.00
2022-08-02T04:02:45.295Z,100476.00
2022-08-02T04:05:12.502Z,100476.00
2022-08-02T04:08:33.215Z,100462.00
2022-08-02T04:10:27.391Z,100477.00
2022-08-02T04:12:56.855Z,100482.00
2022-08-02T04:15:24.886Z,100481.00
2022-08-02T04:17:59.583Z,100485.00
2022-08-02T04:20:36.118Z,100489.00
2022-08-02T04:23:08.185Z,100491.00
2022-08-02T04:25:40.178Z,100489.00
2022-08-02T04:28:17.285Z,100491.00
2022-08-02T04:30:48.309Z,100496.00
2022-08-02T04:33:16.562Z,100494.00
2022-08-02T04:35:45.161Z,100503.00
2022-08-02T04:38:16.176Z,100499.00
2022-08-02T04:40:55.492Z,100496.00
2022-08-02T04:43:23.688Z,100511.00
2022-08-02T04:45:54.220Z,100515.00
2022-08-02T04:48:22.734Z,100514.00
2022-08-02T04:50:50.387Z,100503.00
2022-08-02T04:53:18.132Z,100521.00
2022-08-02T04:55:45.512Z,100518.00
2022-08-02T04:58:38.778Z,100529.00
2022-08-02T05:01:00.911Z,100521.00
2022-08-02T05:03:28.023Z,100524.00
2022-08-02T05:05:55.055Z,100532.00
2022-08-02T05:08:22.074Z,100533.00
2022-08-02T05:10:49.160Z,100557.00
2022-08-02T05:13:16.157Z,100544.00
2022-08-02T05:15:43.210Z,100539.00
2022-08-02T05:18:10.446Z,100516.00
2022-08-02T05:20:37.609Z,100541.00
2022-08-02T05:23:04.727Z,100545.00
2022-08-02T05:25:31.917Z,100542.00
2022-08-02T05:27:59.029Z,100547.00
2022-08-02T05:30:26.183Z,100552.00
2022-08-02T05:32:53.146Z,100563.00
2022-08-02T05:35:25.069Z,100556.00
2022-08-02T05:37:52.813Z,100559.00
2022-08-02T05:40:25.958Z,100561.00
2022-08-02T05:42:54.354Z,100565.00
2022-08-02T05:45:22.122Z,100547.00
2022-08-02T05:47:49.377Z,100560.00
2022-08-02T05:50:16.621Z,100577.00
2022-08-02T05:52:59.257Z,100574.00
2022-08-02T05:55:42.682Z,100571.00
2022-08-02T05:58:25.630Z,100582.00
2022-08-02T06:00:56.187Z,100588.00
2022-08-02T06:03:37.066Z,100582.00
2022-08-02T06:06:12.618Z,100588.00
2022-08-02T06:08:48.099Z,100589.00
2022-08-02T06:11:22.983Z,100590.00
2022-08-02T06:13:51.808Z,100590.00
2022-08-02T06:16:31.828Z,100587.00
2022-08-02T06:19:01.229Z,100580.00
2022-08-02T06:22:32.695Z,100564.00
2022-08-02T06:24:19.988Z,100592.00
2022-08-02T06:26:52.690Z,100594.00
2022-08-02T06:29:23.217Z,100597.00
2022-08-02T06:31:53.507Z,100604.00
2022-08-02T06:34:20.533Z,100605.00
2022-08-02T06:37:14.106Z,100606.00
2022-08-02T06:39:47.696Z,100607.00
2022-08-02T06:42:27.132Z,100604.00
2022-08-02T06:44:57.673Z,100605.00
2022-08-02T06:47:28.890Z,100600.00
2022-08-02T06:49:58.370Z,100608.00
2022-08-02T06:52:30.140Z,100603.00
2022-08-02T06:55:03.619Z,100602.00
2022-08-02T06:57:31.177Z,100609.00
2022-08-02T07:00:06.620Z,100592.00
2022-08-02T07:02:35.676Z,100599.00
2022-08-02T07:05:04.639Z,100592.00
2022-08-02T07:07:32.001Z,100597.00
2022-08-02T07:10:01.786Z,100593.00
2022-08-02T07:12:31.586Z,100581.00
2022-08-02T07:15:04.611Z,100581.00
2022-08-02T07:17:32.729Z,100589.00
2022-08-02T07:20:03.310Z,100590.00
2022-08-02T07:22:30.681Z,100595.00
2022-08-02T07:25:01.410Z,100592.00
2022-08-02T07:27:28.801Z,100593.00
2022-08-02T07:29:56.674Z,100600.00
2022-08-02T07:32:30.184Z,100590.00
2022-08-02T07:34:58.698Z,100592.00
2022-08-02T07:37:53.575Z,100593.00
2022-08-02T07:40:19.541Z,100591.00
2022-08-02T07:42:52.322Z,100590.00
2022-08-02T07:45:21.411Z,100597.00
2022-08-02T07:47:49.469Z,100577.00
2022-08-02T07:50:21.086Z,100588.00
2022-08-02T07:52:48.750Z,100593.00
2022-08-02T07:55:18.224Z,100579.00
2022-08-02T07:57:47.060Z,100587.00
2022-08-02T08:00:17.420Z,100578.00
2022-08-02T08:02:46.026Z,100575.00
2022-08-02T08:05:14.278Z,100589.00
2022-08-02T08:07:41.388Z,100589.00
2022-08-02T08:10:09.767Z,100593.00
2022-08-02T08:12:39.865Z,100602.00
2022-08-02T08:15:07.543Z,100578.00
2022-08-02T08:17:35.185Z,100589.00
2022-08-02T08:20:05.066Z,100587.00
2022-08-02T08:22:32.247Z,100581.00
2022-08-02T08:24:59.306Z,100583.00
2022-08-02T08:27:26.297Z,100580.00
2022-08-02T08:29:53.430Z,100577.00
2022-08-02T08:32:20.946Z,100581.00
2022-08-02T08:34:49.334Z,100591.00
2022-08-02T08:37:18.523Z,100568.00
2022-08-02T08:39:58.286Z,100582.00
2022-08-02T08:42:31.359Z,100589.00
2022-08-02T08:44:59.837Z,100571.00
2022-08-02T08:47:39.267Z,100574.00
2022-08-02T08:50:31.160Z,100572.00
2022-08-02T08:53:07.226Z,100574.00
2022-08-02T08:55:37.512Z,100587.00
2022-08-02T08:58:06.441Z,100586.00
2022-08-02T09:00:36.401Z,100589.00
2022-08-02T09:03:06.982Z,100582.00
2022-08-02T09:05:39.026Z,100592.00
2022-08-02T09:08:07.296Z,100589.00
2022-08-02T09:10:47.572Z,100596.00
2022-08-02T09:13:39.256Z,100581.00
2022-08-02T09:16:14.354Z,100581.00
2022-08-02T09:18:47.363Z,100597.00
2022-08-02T09:21:17.045Z,100591.00
2022-08-02T09:23:50.264Z,100590.00
2022-08-02T09:26:20.064Z,100586.00
2022-08-02T09:28:51.540Z,100577.00
2022-08-02T09:31:22.761Z,100589.00
2022-08-02T09:33:58.740Z,100593.00
2022-08-02T09:51:50.921Z,100581.00
2022-08-02T09:54:21.633Z,100570.00
2022-08-02T09:56:52.776Z,100570.00
2022-08-02T09:59:25.035Z,100561.00
2022-08-02T10:02:01.495Z,100567.00
2022-08-02T10:04:34.449Z,100564.00
2022-08-02T10:07:21.657Z,100558.00
2022-08-02T10:09:51.589Z,100566.00
2022-08-02T10:12:23.383Z,100562.00
2022-08-02T10:14:52.157Z,100545.00
2022-08-02T10:17:22.624Z,100551.00
2022-08-02T10:20:03.270Z,100552.00
2022-08-02T10:22:34.519Z,100556.00
2022-08-02T10:25:04.771Z,100540.00
2022-08-02T10:27:55.450Z,100548.00
2022-08-02T10:30:30.430Z,100543.00
2022-08-02T10:32:59.831Z,100537.00
2022-08-02T10:35:27.223Z,100543.00
2022-08-02T10:38:09.131Z,100535.00
2022-08-02T10:40:54.897Z,100534.00
2022-08-02T10:43:36.915Z,100544.00
2022-08-02T10:46:23.138Z,100533.00
2022-08-02T10:49:39.192Z,100539.00
2022-08-02T10:52:14.593Z,100533.00
2022-08-02T10:55:13.274Z,100537.00
2022-08-02T10:57:41.719Z,100534.00
2022-08-02T11:00:24.829Z,100545.00
2022-08-02T11:02:53.874Z,100539.00
2022-08-02T11:05:42.738Z,100546.00
2022-08-02T11:08:23.246Z,100536.00
2022-08-02T11:10:50.336Z,100542.00
2022-08-02T11:13:20.144Z,100529.00
2022-08-02T11:16:10.978Z,100516.00
2022-08-02T11:19:06.727Z,100517.00
2022-08-02T11:21:36.287Z,100525.00
2022-08-02T11:24:36.733Z,100523.00
2022-08-02T11:27:09.161Z,100527.00
2022-08-02T11:29:49.328Z,100529.00
2022-08-02T11:32:20.655Z,100531.00
2022-08-02T11:34:51.836Z,100532.00
2022-08-02T11:37:37.551Z,100525.00
2022-08-02T11:40:19.353Z,100534.00
2022-08-02T11:42:53.753Z,100528.00
2022-08-02T11:45:29.653Z,100533.00
2022-08-02T11:47:57.879Z,100530.00
2022-08-02T11:50:30.074Z,100533.00
2022-08-02T11:52:58.251Z,100527.00
2022-08-02T11:55:31.341Z,100525.00
2022-08-02T11:58:05.790Z,100532.00
2022-08-02T12:00:34.495Z,100531.00
2022-08-02T12:03:01.989Z,100531.00
2022-08-02T12:06:02.722Z,100524.00
2022-08-02T12:08:19.341Z,100526.00
2022-08-02T12:10:50.901Z,100530.00
2022-08-02T12:13:18.215Z,100532.00
2022-08-02T12:15:47.763Z,100526.00
2022-08-02T12:18:36.275Z,100534.00
2022-08-02T12:21:20.394Z,100533.00
2022-08-02T12:23:59.486Z,100537.00
2022-08-02T12:26:30.596Z,100519.00
2022-08-02T12:28:59.013Z,100542.00
2022-08-02T12:31:57.593Z,100545.00
2022-08-02T12:34:29.853Z,100546.00
2022-08-02T12:37:08.288Z,100543.00
2022-08-02T12:39:41.029Z,100552.00
2022-08-02T12:42:14.996Z,100559.00
2022-08-02T12:44:59.403Z,100539.00
2022-08-02T12:47:31.294Z,100530.00
2022-08-02T12:50:34.680Z,100538.00
2022-08-02T12:53:18.115Z,100534.00
2022-08-02T12:56:01.547Z,100538.00
2022-08-02T12:58:31.991Z,100540.00
2022-08-02T13:01:01.700Z,100553.00
2022-08-02T13:04:09.271Z,100555.00
2022-08-02T13:06:42.992Z,100550.00
2022-08-02T13:09:17.335Z,100560.00
2022-08-02T13:11:45.187Z,100550.00
2022-08-02T13:14:14.188Z,100543.00
2022-08-02T13:16:45.265Z,100550.00
2022-08-02T13:19:15.558Z,100546.00
2022-08-02T13:22:00.999Z,100548.00
2022-08-02T13:24:38.028Z,100538.00
2022-08-02T13:27:08.363Z,100538.00
2022-08-02T13:29:37.793Z,100537.00
2022-08-02T13:32:05.037Z,100547.00
2022-08-02T13:34:31.980Z,100533.00
2022-08-02T13:36:59.169Z,100528.00
2022-08-02T13:39:26.249Z,100521.00
2022-08-02T13:41:54.273Z,100533.00
2022-08-02T13:44:21.644Z,100528.00
2022-08-02T13:46:48.800Z,100524.00
2022-08-02T13:49:19.781Z,100517.00
2022-08-02T13:51:50.609Z,100518.00
2022-08-02T13:54:18.010Z,100511.00
2022-08-02T13:56:45.131Z,100506.00
2022-08-02T13:59:57.559Z,100511.00
2022-08-02T14:02:00.079Z,100512.00
2022-08-02T14:04:27.857Z,100505.00
2022-08-02T14:06:58.958Z,100499.00
2022-08-02T14:09:26.881Z,100511.00
2022-08-02T14:11:54.029Z,100507.00
2022-08-02T14:14:22.510Z,100506.00
2022-08-02T14:16:49.723Z,100513.00
2022-08-02T14:19:17.514Z,100511.00
2022-08-02T14:21:46.646Z,100514.00
2022-08-02T14:24:22.414Z,100508.00
2022-08-02T14:26:50.737Z,100502.00
2022-08-02T14:29:19.245Z,100505.00
2022-08-02T14:31:46.415Z,100487.00
2022-08-02T14:34:14.149Z,100498.00
2022-08-02T14:36:41.562Z,100488.00
2022-08-02T14:39:08.950Z,100503.00
2022-08-02T14:41:59.684Z,100503.00
2022-08-02T14:44:24.600Z,100504.00
2022-08-02T14:46:52.850Z,100502.00
2022-08-02T14:49:24.601Z,100528.00
2022-08-02T14:51:54.597Z,100533.00
2022-08-02T14:54:28.060Z,100517.00
2022-08-02T14:57:03.248Z,100539.00
2022-08-02T14:59:30.905Z,100549.00
2022-08-02T15:01:59.633Z,100556.00
2022-08-02T15:04:27.788Z,100559.00
2022-08-02T15:06:55.217Z,100545.00
2022-08-02T15:09:22.891Z,100543.00
2022-08-02T15:11:50.328Z,100555.00
2022-08-02T15:14:25.657Z,100551.00
2022-08-02T15:16:58.028Z,100560.00
2022-08-02T15:19:44.941Z,100564.00
2022-08-02T15:22:19.235Z,100560.00
2022-08-02T15:24:48.653Z,100562.00
2022-08-02T15:27:16.411Z,100561.00
2022-08-02T15:29:49.410Z,100563.00
2022-08-02T15:32:22.114Z,100563.00
2022-08-02T15:34:49.128Z,100567.00
2022-08-02T15:37:16.223Z,100555.00
2022-08-02T15:39:44.086Z,100563.00
2022-08-02T15:42:11.815Z,100556.00
2022-08-02T15:44:39.037Z,100565.00
2022-08-02T15:47:07.603Z,100554.00
2022-08-02T15:49:39.308Z,100563.00
2022-08-02T15:52:08.284Z,100564.00
2022-08-02T15:54:35.592Z,100550.00
2022-08-02T15:57:02.621Z,100565.00
2022-08-02T15:59:30.014Z,100568.00
2022-08-02T16:01:57.209Z,100566.00
2022-08-02T16:04:24.644Z,100570.00
2022-08-02T16:06:51.782Z,100571.00
2022-08-02T16:09:18.923Z,100576.00
2022-08-02T16:11:46.146Z,100581.00
2022-08-02T16:14:13.265Z,100574.00
2022-08-02T16:16:40.603Z,100586.00
2022-08-02T16:19:46.547Z,100576.00
2022-08-02T16:21:56.305Z,100587.00
2022-08-02T16:24:23.781Z,100575.00
2022-08-02T16:26:50.882Z,100586.00
2022-08-02T16:29:19.750Z,100588.00
2022-08-02T16:31:48.119Z,100567.00
2022-08-02T16:34:16.857Z,100583.00
2022-08-02T16:36:44.807Z,100581.00
2022-08-02T16:39:12.463Z,100594.00
2022-08-02T16:41:51.124Z,100592.00
2022-08-02T16:44:29.130Z,100589.00
2022-08-02T16:47:01.273Z,100592.00
2022-08-02T16:50:07.223Z,100590.00
2022-08-02T16:52:19.071Z,100606.00
2022-08-02T16:54:49.590Z,100593.00
2022-08-02T16:57:19.934Z,100603.00
2022-08-02T16:59:58.294Z,100603.00
2022-08-02T17:02:28.747Z,100596.00
2022-08-02T17:04:56.688Z,100596.00
2022-08-02T17:08:07.799Z,100600.00
2022-08-02T17:10:11.730Z,100611.00
2022-08-02T17:12:41.430Z,100608.00
2022-08-02T17:16:01.291Z,100595.00
2022-08-02T17:17:58.111Z,100612.00
2022-08-02T17:20:25.675Z,100615.00
2022-08-02T17:22:53.612Z,100609.00
2022-08-02T17:25:24.738Z,100616.00
2022-08-02T17:27:56.045Z,100624.00
2022-08-02T17:30:26.871Z,100627.00
2022-08-02T17:33:00.818Z,100631.00
2022-08-02T17:35:43.850Z,100623.00
2022-08-02T17:38:26.349Z,100623.00
2022-08-02T17:41:05.907Z,100627.00
2022-08-02T17:43:42.185Z,100634.00
2022-08-02T17:46:09.314Z,100633.00
2022-08-02T17:48:56.763Z,100620.00
2022-08-02T17:52:16.133Z,100640.00
2022-08-02T17:54:18.694Z,100641.00
2022-08-02T17:56:49.428Z,100649.00
2022-08-02T17:59:22.529Z,100654.00
2022-08-02T18:02:03.724Z,100661.00
2022-08-02T18:04:32.487Z,100655.00
2022-08-02T18:07:04.524Z,100655.00
2022-08-02T18:09:43.322Z,100664.00
2022-08-02T18:12:14.497Z,100671.00
2022-08-02T18:14:48.985Z,100670.00
2022-08-02T18:17:17.214Z,100662.00
2022-08-02T18:19:55.105Z,100671.00
2022-08-02T18:22:27.042Z,100666.00
2022-08-02T18:24:54.515Z,100672.00
2022-08-02T18:27:22.221Z,100659.00
2022-08-02T18:30:04.021Z,100656.00
2022-08-02T18:33:55.092Z,100677.00
2022-08-02T18:35:19.682Z,100680.00
2022-08-02T18:37:56.887Z,100677.00
2022-08-02T18:40:24.706Z,100677.00
2022-08-02T18:42:51.703Z,100687.00
2022-08-02T18:45:20.345Z,100685.00
2022-08-02T18:47:50.760Z,100673.00
2022-08-02T18:50:19.814Z,100687.00
2022-08-02T18:52:50.598Z,100689.00
2022-08-02T18:56:03.414Z,100684.00
2022-08-02T18:58:19.825Z,100702.00
2022-08-02T19:00:51.686Z,100694.00
2022-08-02T19:03:20.388Z,100692.00
2022-08-02T19:05:52.018Z,100703.00
2022-08-02T19:08:25.376Z,100700.00
2022-08-02T19:10:55.992Z,100699.00
2022-08-02T19:13:24.098Z,100685.00
2022-08-02T19:15:52.501Z,100692.00
2022-08-02T19:18:19.867Z,100690.00
2022-08-02T19:21:05.459Z,100702.00
2022-08-02T19:23:36.256Z,100702.00
2022-08-02T19:26:03.955Z,100698.00
2022-08-02T19:28:31.818Z,100704.00
2022-08-02T19:31:09.316Z,100710.00
2022-08-02T19:34:05.829Z,100710.00
2022-08-02T19:36:32.739Z,100705.00
2022-08-02T19:39:25.691Z,100714.00
2022-08-02T19:41:54.280Z,100705.00
2022-08-02T19:44:29.411Z,100702.00
2022-08-02T19:47:06.945Z,100699.00
2022-08-02T19:49:44.374Z,100702.00
2022-08-02T19:52:25.174Z,100701.00
2022-08-02T19:54:55.917Z,100694.00
2022-08-02T19:57:34.456Z,100691.00
2022-08-02T20:00:21.549Z,100694.00
2022-08-02T20:02:53.219Z,100691.00
2022-08-02T20:05:26.763Z,100693.00
2022-08-02T20:08:02.495Z,100692.00
2022-08-02T20:10:36.504Z,100687.00
2022-08-02T20:13:12.958Z,100694.00
2022-08-02T20:15:55.983Z,100693.00
2022-08-02T20:18:28.958Z,100700.00
2022-08-02T20:21:03.137Z,100691.00
2022-08-02T20:23:35.158Z,100702.00
2022-08-02T20:26:05.851Z,100711.00
2022-08-02T20:28:40.357Z,100706.00
2022-08-02T20:31:11.549Z,100707.00
2022-08-02T20:33:55.367Z,100701.00
2022-08-02T20:36:37.783Z,100714.00
2022-08-02T20:39:12.039Z,100705.00
2022-08-02T20:41:46.383Z,100699.00
2022-08-02T20:44:30.843Z,100689.00
2022-08-02T20:47:03.982Z,100695.00
2022-08-02T20:49:52.626Z,100691.00
2022-08-02T20:52:31.030Z,100692.00
2022-08-02T20:55:00.753Z,100676.00
2022-08-02T20:57:48.493Z,100686.00
2022-08-02T21:00:17.095Z,100686.00
2022-08-02T21:02:45.169Z,100677.00
2022-08-02T21:05:15.370Z,100674.00
2022-08-02T21:07:47.675Z,100687.00
2022-08-02T21:10:20.163Z,100681.00
2022-08-02T21:12:53.634Z,100675.00
2022-08-02T21:15:26.451Z,100676.00
2022-08-02T21:18:05.737Z,100673.00
2022-08-02T21:20:45.697Z,100686.00
2022-08-02T21:23:19.917Z,100673.00
2022-08-02T21:25:56.943Z,100680.00
2022-08-02T21:28:35.055Z,100681.00
2022-08-02T21:31:20.993Z,100677.00
2022-08-02T21:33:58.221Z,100658.00
2022-08-02T21:36:35.437Z,100675.00
2022-08-02T21:39:09.317Z,100669.00
2022-08-02T21:41:46.397Z,100670.00
2022-08-02T21:44:22.218Z,100676.00
2022-08-02T21:46:56.216Z,100674.00
2022-08-02T21:49:27.365Z,100668.00
2022-08-02T21:52:14.025Z,100676.00
2022-08-02T21:54:41.171Z,100668.00
2022-08-02T21:57:16.092Z,100685.00
2022-08-02T21:59:46.292Z,100654.00
2022-08-02T22:02:16.399Z,100682.00
2022-08-02T22:04:49.168Z,100680.00
2022-08-02T22:07:24.246Z,100673.00
2022-08-02T22:09:53.045Z,100658.00
2022-08-02T22:12:20.922Z,100682.00
2022-08-02T22:14:54.121Z,100669.00
2022-08-02T22:17:50.422Z,100672.00
2022-08-02T22:20:19.796Z,100674.00
2022-08-02T22:22:52.447Z,100673.00
2022-08-02T22:25:26.705Z,100672.00
2022-08-02T22:28:36.586Z,100675.00
2022-08-02T22:30:54.330Z,100666.00
2022-08-02T22:33:59.955Z,100663.00
2022-08-02T22:36:30.845Z,100664.00
2022-08-02T22:38:59.023Z,100664.00
2022-08-02T22:42:01.153Z,100665.00
2022-08-02T22:44:13.782Z,100665.00
2022-08-02T22:46:41.989Z,100663.00
2022-08-02T22:49:09.186Z,100664.00
2022-08-02T22:51:56.018Z,100665.00
2022-08-02T22:54:22.969Z,100666.00
2022-08-02T22:56:51.026Z,100671.00
2022-08-02T22:59:20.044Z,100664.00
2022-08-02T23:02:05.594Z,100667.00
2022-08-02T23:04:32.687Z,100666.00
2022-08-02T23:07:02.784Z,100673.00
2022-08-02T23:09:29.981Z,100672.00
2022-08-02T23:11:57.028Z,100664.00
2022-08-02T23:14:24.085Z,100671.00
2022-08-02T23:28:56.643Z,100676.00
2022-08-02T23:31:38.090Z,100668.00
2022-08-02T23:34:05.892Z,100656.00
2022-08-02T23:36:34.046Z,100676.00
2022-08-02T23:39:01.129Z,100670.00
2022-08-02T23:41:28.371Z,100667.00
2022-08-02T23:44:12.635Z,100661.00
2022-08-02T23:46:47.193Z,100648.00
2022-08-02T23:49:16.523Z,100656.00
2022-08-02T23:51:43.904Z,100655.00
2022-08-02T23:54:11.776Z,100661.00
2022-08-02T23:56:39.955Z,100657.00
2022-08-02T23:59:07.895Z,100658.00
